sensor_id;sensor_type;location;lat;lon;timestamp;P1;durP1;ratioP1;P2;durP2;ratioP2
5245;SDS011;54412;51.206;6.888;2023-11-19T00:00:42;3.20;;;3.00;;
5245;SDS011;54412;51.206;6.888;2023-11-19T00:03:08;4.17;;;3.80;;
5245;SDS011;54412;51.206;6.888;2023-11-19T00:05:34;3.87;;;3.33;;
5245;SDS011;54412;51.206;6.888;2023-11-19T00:07:59;3.93;;;3.53;;
5245;SDS011;54412;51.206;6.888;2023-11-19T00:10:27;3.63;;;3.33;;
5245;SDS011;54412;51.206;6.888;2023-11-19T00:12:52;4.13;;;3.83;;
5245;SDS011;54412;51.206;6.888;2023-11-19T00:15:18;4.70;;;3.63;;
5245;SDS011;54412;51.206;6.888;2023-11-19T00:17:44;3.27;;;2.97;;
5245;SDS011;54412;51.206;6.888;2023-11-19T00:20:12;4.10;;;3.10;;
5245;SDS011;54412;51.206;6.888;2023-11-19T00:22:40;3.43;;;3.20;;
5245;SDS011;54412;51.206;6.888;2023-11-19T00:25:09;6.83;;;3.00;;
5245;SDS011;54412;51.206;6.888;2023-11-19T00:27:35;4.10;;;3.63;;
5245;SDS011;54412;51.206;6.888;2023-11-19T00:30:02;3.23;;;2.97;;
5245;SDS011;54412;51.206;6.888;2023-11-19T00:32:32;4.50;;;3.23;;
5245;SDS011;54412;51.206;6.888;2023-11-19T00:34:58;3.17;;;2.97;;
5245;SDS011;54412;51.206;6.888;2023-11-19T00:37:23;3.73;;;3.33;;
5245;SDS011;54412;51.206;6.888;2023-11-19T00:39:49;3.17;;;2.97;;
5245;SDS011;54412;51.206;6.888;2023-11-19T00:42:15;3.80;;;2.80;;
5245;SDS011;54412;51.206;6.888;2023-11-19T00:44:40;4.03;;;3.27;;
5245;SDS011;54412;51.206;6.888;2023-11-19T00:47:06;2.73;;;2.40;;
5245;SDS011;54412;51.206;6.888;2023-11-19T00:49:32;3.13;;;2.67;;
5245;SDS011;54412;51.206;6.888;2023-11-19T00:51:58;6.50;;;2.57;;
5245;SDS011;54412;51.206;6.888;2023-11-19T00:54:24;3.10;;;2.90;;
5245;SDS011;54412;51.206;6.888;2023-11-19T00:56:51;3.63;;;2.73;;
5245;SDS011;54412;51.206;6.888;2023-11-19T00:59:18;3.90;;;2.60;;
5245;SDS011;54412;51.206;6.888;2023-11-19T01:01:44;2.37;;;2.27;;
5245;SDS011;54412;51.206;6.888;2023-11-19T01:04:10;2.70;;;2.50;;
5245;SDS011;54412;51.206;6.888;2023-11-19T01:06:36;5.97;;;2.90;;
5245;SDS011;54412;51.206;6.888;2023-11-19T01:09:02;2.77;;;2.57;;
5245;SDS011;54412;51.206;6.888;2023-11-19T01:11:27;2.20;;;2.10;;
5245;SDS011;54412;51.206;6.888;2023-11-19T01:13:53;3.40;;;2.83;;
5245;SDS011;54412;51.206;6.888;2023-11-19T01:16:19;5.13;;;2.70;;
5245;SDS011;54412;51.206;6.888;2023-11-19T01:18:49;2.70;;;2.60;;
5245;SDS011;54412;51.206;6.888;2023-11-19T01:21:15;2.53;;;2.30;;
5245;SDS011;54412;51.206;6.888;2023-11-19T01:23:41;2.77;;;2.60;;
5245;SDS011;54412;51.206;6.888;2023-11-19T01:26:08;3.70;;;2.50;;
5245;SDS011;54412;51.206;6.888;2023-11-19T01:28:35;1.90;;;1.90;;
5245;SDS011;54412;51.206;6.888;2023-11-19T01:31:01;4.30;;;2.13;;
5245;SDS011;54412;51.206;6.888;2023-11-19T01:33:28;3.03;;;1.77;;
5245;SDS011;54412;51.206;6.888;2023-11-19T01:35:54;1.90;;;1.80;;
5245;SDS011;54412;51.206;6.888;2023-11-19T01:38:23;1.60;;;1.50;;
5245;SDS011;54412;51.206;6.888;2023-11-19T01:40:50;1.87;;;1.43;;
5245;SDS011;54412;51.206;6.888;2023-11-19T01:43:33;2.13;;;2.03;;
5245;SDS011;54412;51.206;6.888;2023-11-19T01:46:08;6.37;;;2.00;;
5245;SDS011;54412;51.206;6.888;2023-11-19T01:48:39;2.93;;;1.63;;
5245;SDS011;54412;51.206;6.888;2023-11-19T01:51:08;2.17;;;1.53;;
5245;SDS011;54412;51.206;6.888;2023-11-19T01:53:36;1.63;;;1.53;;
5245;SDS011;54412;51.206;6.888;2023-11-19T01:56:04;2.80;;;1.63;;
5245;SDS011;54412;51.206;6.888;2023-11-19T01:58:34;1.83;;;1.70;;
5245;SDS011;54412;51.206;6.888;2023-11-19T02:01:01;2.90;;;1.97;;
5245;SDS011;54412;51.206;6.888;2023-11-19T02:03:29;1.23;;;1.17;;
5245;SDS011;54412;51.206;6.888;2023-11-19T02:05:58;6.93;;;2.17;;
5245;SDS011;54412;51.206;6.888;2023-11-19T02:08:27;1.43;;;1.30;;
5245;SDS011;54412;51.206;6.888;2023-11-19T02:10:55;6.67;;;1.53;;
5245;SDS011;54412;51.206;6.888;2023-11-19T02:13:23;2.00;;;1.23;;
5245;SDS011;54412;51.206;6.888;2023-11-19T02:15:51;3.50;;;1.30;;
5245;SDS011;54412;51.206;6.888;2023-11-19T02:18:20;4.60;;;1.20;;
5245;SDS011;54412;51.206;6.888;2023-11-19T02:20:55;4.47;;;1.90;;
5245;SDS011;54412;51.206;6.888;2023-11-19T02:23:28;3.80;;;1.40;;
5245;SDS011;54412;51.206;6.888;2023-11-19T02:25:59;3.10;;;1.70;;
5245;SDS011;54412;51.206;6.888;2023-11-19T02:28:43;4.93;;;1.80;;
5245;SDS011;54412;51.206;6.888;2023-11-19T02:31:09;5.00;;;2.30;;
5245;SDS011;54412;51.206;6.888;2023-11-19T02:33:36;1.87;;;1.50;;
5245;SDS011;54412;51.206;6.888;2023-11-19T02:36:06;4.43;;;1.53;;
5245;SDS011;54412;51.206;6.888;2023-11-19T02:38:33;5.20;;;2.30;;
5245;SDS011;54412;51.206;6.888;2023-11-19T02:41:03;12.83;;;2.33;;
5245;SDS011;54412;51.206;6.888;2023-11-19T02:43:32;7.27;;;2.60;;
5245;SDS011;54412;51.206;6.888;2023-11-19T02:46:02;5.60;;;2.13;;
5245;SDS011;54412;51.206;6.888;2023-11-19T02:48:32;11.73;;;2.33;;
5245;SDS011;54412;51.206;6.888;2023-11-19T02:51:00;4.70;;;2.57;;
5245;SDS011;54412;51.206;6.888;2023-11-19T02:53:28;7.13;;;2.50;;
5245;SDS011;54412;51.206;6.888;2023-11-19T02:55:55;18.47;;;3.00;;
5245;SDS011;54412;51.206;6.888;2023-11-19T02:58:26;7.17;;;2.73;;
5245;SDS011;54412;51.206;6.888;2023-11-19T03:00:53;6.93;;;2.20;;
5245;SDS011;54412;51.206;6.888;2023-11-19T03:03:24;13.20;;;2.60;;
5245;SDS011;54412;51.206;6.888;2023-11-19T03:05:56;9.40;;;2.67;;
5245;SDS011;54412;51.206;6.888;2023-11-19T03:08:22;14.37;;;2.87;;
5245;SDS011;54412;51.206;6.888;2023-11-19T03:10:48;12.33;;;3.20;;
5245;SDS011;54412;51.206;6.888;2023-11-19T03:13:14;6.10;;;2.57;;
5245;SDS011;54412;51.206;6.888;2023-11-19T03:15:40;11.63;;;3.20;;
5245;SDS011;54412;51.206;6.888;2023-11-19T03:18:06;15.90;;;3.40;;
5245;SDS011;54412;51.206;6.888;2023-11-19T03:20:33;23.70;;;3.10;;
5245;SDS011;54412;51.206;6.888;2023-11-19T03:22:58;14.90;;;3.33;;
5245;SDS011;54412;51.206;6.888;2023-11-19T03:25:26;13.53;;;3.20;;
5245;SDS011;54412;51.206;6.888;2023-11-19T03:27:58;13.00;;;2.70;;
5245;SDS011;54412;51.206;6.888;2023-11-19T03:30:28;8.00;;;2.73;;
5245;SDS011;54412;51.206;6.888;2023-11-19T03:32:55;8.03;;;3.00;;
5245;SDS011;54412;51.206;6.888;2023-11-19T03:35:23;13.00;;;2.80;;
5245;SDS011;54412;51.206;6.888;2023-11-19T03:37:49;13.83;;;3.60;;
5245;SDS011;54412;51.206;6.888;2023-11-19T03:40:16;17.00;;;3.10;;
5245;SDS011;54412;51.206;6.888;2023-11-19T03:42:43;21.20;;;3.80;;
5245;SDS011;54412;51.206;6.888;2023-11-19T03:45:12;16.40;;;4.50;;
5245;SDS011;54412;51.206;6.888;2023-11-19T03:47:40;13.90;;;3.07;;
5245;SDS011;54412;51.206;6.888;2023-11-19T03:50:06;16.10;;;3.13;;
5245;SDS011;54412;51.206;6.888;2023-11-19T03:52:33;9.73;;;3.30;;
5245;SDS011;54412;51.206;6.888;2023-11-19T03:54:59;11.20;;;2.70;;
5245;SDS011;54412;51.206;6.888;2023-11-19T03:57:25;21.10;;;3.47;;
5245;SDS011;54412;51.206;6.888;2023-11-19T03:59:52;14.93;;;5.10;;
5245;SDS011;54412;51.206;6.888;2023-11-19T04:02:18;15.40;;;3.97;;
5245;SDS011;54412;51.206;6.888;2023-11-19T04:04:44;27.73;;;4.73;;
5245;SDS011;54412;51.206;6.888;2023-11-19T04:07:09;17.33;;;3.57;;
5245;SDS011;54412;51.206;6.888;2023-11-19T04:09:35;18.83;;;3.00;;
5245;SDS011;54412;51.206;6.888;2023-11-19T04:12:02;9.33;;;2.80;;
5245;SDS011;54412;51.206;6.888;2023-11-19T04:14:29;27.40;;;3.90;;
5245;SDS011;54412;51.206;6.888;2023-11-19T04:16:54;20.40;;;3.80;;
5245;SDS011;54412;51.206;6.888;2023-11-19T04:19:20;16.03;;;3.40;;
5245;SDS011;54412;51.206;6.888;2023-11-19T04:21:46;24.53;;;4.30;;
5245;SDS011;54412;51.206;6.888;2023-11-19T04:24:12;21.57;;;3.43;;
5245;SDS011;54412;51.206;6.888;2023-11-19T04:26:42;18.20;;;4.63;;
5245;SDS011;54412;51.206;6.888;2023-11-19T04:29:13;29.87;;;4.47;;
5245;SDS011;54412;51.206;6.888;2023-11-19T04:31:40;20.43;;;4.40;;
5245;SDS011;54412;51.206;6.888;2023-11-19T04:34:06;19.27;;;4.00;;
5245;SDS011;54412;51.206;6.888;2023-11-19T04:36:32;20.30;;;3.40;;
5245;SDS011;54412;51.206;6.888;2023-11-19T04:38:59;21.80;;;3.63;;
5245;SDS011;54412;51.206;6.888;2023-11-19T04:41:25;33.07;;;5.23;;
5245;SDS011;54412;51.206;6.888;2023-11-19T04:43:54;22.77;;;4.10;;
5245;SDS011;54412;51.206;6.888;2023-11-19T04:46:20;15.47;;;4.00;;
5245;SDS011;54412;51.206;6.888;2023-11-19T04:48:46;17.73;;;4.13;;
5245;SDS011;54412;51.206;6.888;2023-11-19T04:51:12;15.77;;;3.17;;
5245;SDS011;54412;51.206;6.888;2023-11-19T04:53:37;28.33;;;5.27;;
5245;SDS011;54412;51.206;6.888;2023-11-19T04:56:09;22.77;;;4.47;;
5245;SDS011;54412;51.206;6.888;2023-11-19T04:58:36;23.27;;;4.77;;
5245;SDS011;54412;51.206;6.888;2023-11-19T05:01:02;15.73;;;4.00;;
5245;SDS011;54412;51.206;6.888;2023-11-19T05:03:30;22.90;;;4.77;;
5245;SDS011;54412;51.206;6.888;2023-11-19T05:05:56;22.70;;;4.93;;
5245;SDS011;54412;51.206;6.888;2023-11-19T05:08:22;16.97;;;3.37;;
5245;SDS011;54412;51.206;6.888;2023-11-19T05:10:48;18.53;;;4.33;;
5245;SDS011;54412;51.206;6.888;2023-11-19T05:13:14;22.73;;;4.90;;
5245;SDS011;54412;51.206;6.888;2023-11-19T05:15:40;24.03;;;5.43;;
5245;SDS011;54412;51.206;6.888;2023-11-19T05:18:06;21.20;;;4.33;;
5245;SDS011;54412;51.206;6.888;2023-11-19T05:20:32;23.43;;;4.20;;
5245;SDS011;54412;51.206;6.888;2023-11-19T05:22:58;27.83;;;4.37;;
5245;SDS011;54412;51.206;6.888;2023-11-19T05:25:25;20.07;;;3.67;;
5245;SDS011;54412;51.206;6.888;2023-11-19T05:27:52;27.37;;;4.53;;
5245;SDS011;54412;51.206;6.888;2023-11-19T05:30:18;27.87;;;5.37;;
5245;SDS011;54412;51.206;6.888;2023-11-19T05:32:44;26.70;;;4.40;;
5245;SDS011;54412;51.206;6.888;2023-11-19T05:35:10;30.60;;;4.70;;
5245;SDS011;54412;51.206;6.888;2023-11-19T05:37:36;21.77;;;3.50;;
5245;SDS011;54412;51.206;6.888;2023-11-19T05:40:03;20.73;;;3.90;;
5245;SDS011;54412;51.206;6.888;2023-11-19T05:42:37;25.67;;;4.03;;
5245;SDS011;54412;51.206;6.888;2023-11-19T05:45:03;25.43;;;5.13;;
5245;SDS011;54412;51.206;6.888;2023-11-19T05:47:28;14.83;;;4.27;;
5245;SDS011;54412;51.206;6.888;2023-11-19T05:49:54;17.00;;;3.57;;
5245;SDS011;54412;51.206;6.888;2023-11-19T05:52:20;26.20;;;4.33;;
5245;SDS011;54412;51.206;6.888;2023-11-19T05:54:47;31.10;;;5.47;;
5245;SDS011;54412;51.206;6.888;2023-11-19T05:57:16;36.33;;;5.10;;
5245;SDS011;54412;51.206;6.888;2023-11-19T05:59:48;19.20;;;4.10;;
5245;SDS011;54412;51.206;6.888;2023-11-19T06:02:14;23.07;;;4.13;;
5245;SDS011;54412;51.206;6.888;2023-11-19T06:04:40;11.60;;;3.23;;
5245;SDS011;54412;51.206;6.888;2023-11-19T06:07:09;23.03;;;4.90;;
5245;SDS011;54412;51.206;6.888;2023-11-19T06:09:35;20.30;;;4.03;;
5245;SDS011;54412;51.206;6.888;2023-11-19T06:12:00;23.23;;;5.40;;
5245;SDS011;54412;51.206;6.888;2023-11-19T06:14:31;25.30;;;3.90;;
5245;SDS011;54412;51.206;6.888;2023-11-19T06:16:56;27.70;;;5.13;;
5245;SDS011;54412;51.206;6.888;2023-11-19T06:19:22;17.57;;;3.90;;
5245;SDS011;54412;51.206;6.888;2023-11-19T06:21:49;19.80;;;5.30;;
5245;SDS011;54412;51.206;6.888;2023-11-19T06:24:15;19.17;;;4.93;;
5245;SDS011;54412;51.206;6.888;2023-11-19T06:26:41;31.13;;;6.07;;
5245;SDS011;54412;51.206;6.888;2023-11-19T06:29:06;19.17;;;4.20;;
5245;SDS011;54412;51.206;6.888;2023-11-19T06:31:32;24.60;;;3.83;;
5245;SDS011;54412;51.206;6.888;2023-11-19T06:33:58;22.83;;;4.77;;
5245;SDS011;54412;51.206;6.888;2023-11-19T06:36:23;28.03;;;6.93;;
5245;SDS011;54412;51.206;6.888;2023-11-19T06:38:49;23.80;;;4.47;;
5245;SDS011;54412;51.206;6.888;2023-11-19T06:41:15;28.80;;;4.60;;
5245;SDS011;54412;51.206;6.888;2023-11-19T06:43:40;27.37;;;6.30;;
5245;SDS011;54412;51.206;6.888;2023-11-19T06:46:14;28.83;;;5.00;;
5245;SDS011;54412;51.206;6.888;2023-11-19T06:48:43;27.33;;;5.37;;
5245;SDS011;54412;51.206;6.888;2023-11-19T06:51:09;28.90;;;5.50;;
5245;SDS011;54412;51.206;6.888;2023-11-19T06:53:36;29.43;;;5.03;;
5245;SDS011;54412;51.206;6.888;2023-11-19T06:56:02;26.83;;;6.00;;
5245;SDS011;54412;51.206;6.888;2023-11-19T06:58:31;23.77;;;5.23;;
5245;SDS011;54412;51.206;6.888;2023-11-19T07:01:00;23.77;;;5.73;;
5245;SDS011;54412;51.206;6.888;2023-11-19T07:03:26;23.20;;;5.30;;
5245;SDS011;54412;51.206;6.888;2023-11-19T07:05:52;33.17;;;5.60;;
5245;SDS011;54412;51.206;6.888;2023-11-19T07:08:17;33.50;;;5.43;;
5245;SDS011;54412;51.206;6.888;2023-11-19T07:10:43;36.63;;;6.63;;
5245;SDS011;54412;51.206;6.888;2023-11-19T07:13:09;25.07;;;5.83;;
5245;SDS011;54412;51.206;6.888;2023-11-19T07:15:34;22.07;;;4.20;;
5245;SDS011;54412;51.206;6.888;2023-11-19T07:18:00;22.13;;;5.20;;
5245;SDS011;54412;51.206;6.888;2023-11-19T07:20:26;26.50;;;5.07;;
5245;SDS011;54412;51.206;6.888;2023-11-19T07:22:52;24.90;;;4.70;;
5245;SDS011;54412;51.206;6.888;2023-11-19T07:25:20;18.10;;;5.27;;
5245;SDS011;54412;51.206;6.888;2023-11-19T07:27:45;21.93;;;4.63;;
5245;SDS011;54412;51.206;6.888;2023-11-19T07:30:13;29.40;;;6.10;;
5245;SDS011;54412;51.206;6.888;2023-11-19T07:32:38;24.27;;;4.90;;
5245;SDS011;54412;51.206;6.888;2023-11-19T07:35:04;27.37;;;5.27;;
5245;SDS011;54412;51.206;6.888;2023-11-19T07:37:31;23.30;;;4.53;;
5245;SDS011;54412;51.206;6.888;2023-11-19T07:39:56;29.57;;;6.17;;
5245;SDS011;54412;51.206;6.888;2023-11-19T07:42:22;32.90;;;6.43;;
5245;SDS011;54412;51.206;6.888;2023-11-19T07:44:48;34.83;;;5.43;;
5245;SDS011;54412;51.206;6.888;2023-11-19T07:47:14;29.93;;;6.20;;
5245;SDS011;54412;51.206;6.888;2023-11-19T07:49:40;33.23;;;6.70;;
5245;SDS011;54412;51.206;6.888;2023-11-19T07:52:05;22.80;;;4.10;;
5245;SDS011;54412;51.206;6.888;2023-11-19T07:54:32;25.50;;;5.07;;
5245;SDS011;54412;51.206;6.888;2023-11-19T07:56:57;30.33;;;6.20;;
5245;SDS011;54412;51.206;6.888;2023-11-19T07:59:23;25.73;;;5.20;;
5245;SDS011;54412;51.206;6.888;2023-11-19T08:01:49;25.90;;;5.60;;
5245;SDS011;54412;51.206;6.888;2023-11-19T08:04:14;19.00;;;5.13;;
5245;SDS011;54412;51.206;6.888;2023-11-19T08:06:40;25.60;;;5.43;;
5245;SDS011;54412;51.206;6.888;2023-11-19T08:09:06;27.63;;;5.20;;
5245;SDS011;54412;51.206;6.888;2023-11-19T08:11:33;37.23;;;5.83;;
5245;SDS011;54412;51.206;6.888;2023-11-19T08:13:58;23.67;;;4.93;;
5245;SDS011;54412;51.206;6.888;2023-11-19T08:16:24;23.67;;;4.50;;
5245;SDS011;54412;51.206;6.888;2023-11-19T08:18:50;22.13;;;4.83;;
5245;SDS011;54412;51.206;6.888;2023-11-19T08:21:16;31.43;;;4.90;;
5245;SDS011;54412;51.206;6.888;2023-11-19T08:23:41;24.57;;;5.20;;
5245;SDS011;54412;51.206;6.888;2023-11-19T08:26:07;29.03;;;5.10;;
5245;SDS011;54412;51.206;6.888;2023-11-19T08:28:33;26.20;;;4.67;;
5245;SDS011;54412;51.206;6.888;2023-11-19T08:30:59;27.40;;;4.87;;
5245;SDS011;54412;51.206;6.888;2023-11-19T08:33:26;25.17;;;4.50;;
5245;SDS011;54412;51.206;6.888;2023-11-19T08:35:52;22.30;;;4.70;;
5245;SDS011;54412;51.206;6.888;2023-11-19T08:38:17;25.70;;;5.00;;
5245;SDS011;54412;51.206;6.888;2023-11-19T08:40:43;24.60;;;4.70;;
5245;SDS011;54412;51.206;6.888;2023-11-19T08:43:09;34.10;;;5.53;;
5245;SDS011;54412;51.206;6.888;2023-11-19T08:45:34;25.10;;;5.03;;
5245;SDS011;54412;51.206;6.888;2023-11-19T08:48:01;23.80;;;4.40;;
5245;SDS011;54412;51.206;6.888;2023-11-19T08:50:27;28.60;;;5.20;;
5245;SDS011;54412;51.206;6.888;2023-11-19T08:52:52;25.77;;;4.67;;
5245;SDS011;54412;51.206;6.888;2023-11-19T08:55:18;21.57;;;5.20;;
5245;SDS011;54412;51.206;6.888;2023-11-19T08:57:44;20.93;;;4.80;;
5245;SDS011;54412;51.206;6.888;2023-11-19T09:00:10;26.70;;;5.93;;
5245;SDS011;54412;51.206;6.888;2023-11-19T09:02:39;31.67;;;5.13;;
5245;SDS011;54412;51.206;6.888;2023-11-19T09:05:04;22.40;;;4.63;;
5245;SDS011;54412;51.206;6.888;2023-11-19T09:07:32;25.63;;;5.47;;
5245;SDS011;54412;51.206;6.888;2023-11-19T09:09:58;25.80;;;5.97;;
5245;SDS011;54412;51.206;6.888;2023-11-19T09:12:24;23.60;;;4.77;;
5245;SDS011;54412;51.206;6.888;2023-11-19T09:14:49;29.13;;;5.23;;
5245;SDS011;54412;51.206;6.888;2023-11-19T09:17:15;34.47;;;5.33;;
5245;SDS011;54412;51.206;6.888;2023-11-19T09:19:42;26.03;;;4.97;;
5245;SDS011;54412;51.206;6.888;2023-11-19T09:22:08;25.13;;;5.93;;
5245;SDS011;54412;51.206;6.888;2023-11-19T09:24:34;17.97;;;5.10;;
5245;SDS011;54412;51.206;6.888;2023-11-19T09:26:59;22.23;;;5.10;;
5245;SDS011;54412;51.206;6.888;2023-11-19T09:29:25;23.30;;;5.10;;
5245;SDS011;54412;51.206;6.888;2023-11-19T09:31:50;22.00;;;4.47;;
5245;SDS011;54412;51.206;6.888;2023-11-19T09:34:16;22.77;;;5.10;;
5245;SDS011;54412;51.206;6.888;2023-11-19T09:36:42;27.97;;;5.60;;
5245;SDS011;54412;51.206;6.888;2023-11-19T09:39:09;26.43;;;5.00;;
5245;SDS011;54412;51.206;6.888;2023-11-19T09:41:42;30.83;;;6.23;;
5245;SDS011;54412;51.206;6.888;2023-11-19T09:44:10;36.73;;;6.40;;
5245;SDS011;54412;51.206;6.888;2023-11-19T09:46:36;37.73;;;6.10;;
5245;SDS011;54412;51.206;6.888;2023-11-19T09:49:06;27.67;;;6.73;;
5245;SDS011;54412;51.206;6.888;2023-11-19T09:51:35;23.43;;;5.07;;
5245;SDS011;54412;51.206;6.888;2023-11-19T09:54:01;23.97;;;5.70;;
5245;SDS011;54412;51.206;6.888;2023-11-19T09:56:28;23.37;;;5.73;;
5245;SDS011;54412;51.206;6.888;2023-11-19T09:58:55;33.00;;;6.23;;
5245;SDS011;54412;51.206;6.888;2023-11-19T10:01:20;28.13;;;5.20;;
5245;SDS011;54412;51.206;6.888;2023-11-19T10:03:47;22.57;;;4.90;;
5245;SDS011;54412;51.206;6.888;2023-11-19T10:06:15;34.90;;;5.97;;
5245;SDS011;54412;51.206;6.888;2023-11-19T10:08:41;46.87;;;7.03;;
5245;SDS011;54412;51.206;6.888;2023-11-19T10:11:08;26.33;;;6.10;;
5245;SDS011;54412;51.206;6.888;2023-11-19T10:13:36;39.87;;;5.70;;
5245;SDS011;54412;51.206;6.888;2023-11-19T10:16:09;27.07;;;4.93;;
5245;SDS011;54412;51.206;6.888;2023-11-19T10:18:38;27.33;;;5.47;;
5245;SDS011;54412;51.206;6.888;2023-11-19T10:21:18;27.37;;;5.43;;
5245;SDS011;54412;51.206;6.888;2023-11-19T10:26:25;29.90;;;5.37;;
5245;SDS011;54412;51.206;6.888;2023-11-19T10:28:52;32.40;;;6.10;;
5245;SDS011;54412;51.206;6.888;2023-11-19T10:31:19;31.83;;;6.40;;
5245;SDS011;54412;51.206;6.888;2023-11-19T10:33:54;16.63;;;5.00;;
5245;SDS011;54412;51.206;6.888;2023-11-19T10:36:21;30.33;;;5.90;;
5245;SDS011;54412;51.206;6.888;2023-11-19T10:38:55;27.83;;;5.83;;
5245;SDS011;54412;51.206;6.888;2023-11-19T10:41:31;33.33;;;5.73;;
5245;SDS011;54412;51.206;6.888;2023-11-19T10:43:58;35.23;;;5.43;;
5245;SDS011;54412;51.206;6.888;2023-11-19T10:46:36;21.80;;;4.47;;
5245;SDS011;54412;51.206;6.888;2023-11-19T10:49:09;29.93;;;5.67;;
5245;SDS011;54412;51.206;6.888;2023-11-19T10:51:35;25.10;;;5.00;;
5245;SDS011;54412;51.206;6.888;2023-11-19T10:54:02;28.37;;;5.50;;
5245;SDS011;54412;51.206;6.888;2023-11-19T10:56:30;23.60;;;5.07;;
5245;SDS011;54412;51.206;6.888;2023-11-19T10:58:59;19.03;;;4.67;;
5245;SDS011;54412;51.206;6.888;2023-11-19T11:01:32;22.97;;;5.17;;
5245;SDS011;54412;51.206;6.888;2023-11-19T11:04:19;33.97;;;6.07;;
5245;SDS011;54412;51.206;6.888;2023-11-19T11:06:50;29.17;;;4.70;;
5245;SDS011;54412;51.206;6.888;2023-11-19T11:09:18;23.70;;;5.10;;
5245;SDS011;54412;51.206;6.888;2023-11-19T11:11:46;29.63;;;4.43;;
5245;SDS011;54412;51.206;6.888;2023-11-19T11:14:13;27.37;;;4.23;;
5245;SDS011;54412;51.206;6.888;2023-11-19T11:16:42;26.13;;;5.23;;
5245;SDS011;54412;51.206;6.888;2023-11-19T11:19:09;35.30;;;5.67;;
5245;SDS011;54412;51.206;6.888;2023-11-19T11:21:37;29.13;;;4.70;;
5245;SDS011;54412;51.206;6.888;2023-11-19T11:30:08;23.03;;;4.33;;
5245;SDS011;54412;51.206;6.888;2023-11-19T11:36:08;22.53;;;4.80;;
5245;SDS011;54412;51.206;6.888;2023-11-19T11:38:47;22.23;;;4.33;;
5245;SDS011;54412;51.206;6.888;2023-11-19T11:41:15;26.40;;;5.87;;
5245;SDS011;54412;51.206;6.888;2023-11-19T11:43:52;17.10;;;4.13;;
5245;SDS011;54412;51.206;6.888;2023-11-19T11:54:11;24.93;;;6.03;;
5245;SDS011;54412;51.206;6.888;2023-11-19T11:57:01;16.83;;;3.80;;
5245;SDS011;54412;51.206;6.888;2023-11-19T12:02:07;21.27;;;5.33;;
5245;SDS011;54412;51.206;6.888;2023-11-19T12:04:35;28.97;;;5.80;;
5245;SDS011;54412;51.206;6.888;2023-11-19T12:07:06;17.70;;;4.50;;
5245;SDS011;54412;51.206;6.888;2023-11-19T12:09:37;28.10;;;5.10;;
5245;SDS011;54412;51.206;6.888;2023-11-19T12:12:22;21.27;;;4.00;;
5245;SDS011;54412;51.206;6.888;2023-11-19T12:19:59;25.50;;;5.50;;
5245;SDS011;54412;51.206;6.888;2023-11-19T12:22:26;27.80;;;4.30;;
5245;SDS011;54412;51.206;6.888;2023-11-19T12:24:53;20.30;;;4.30;;
5245;SDS011;54412;51.206;6.888;2023-11-19T12:27:20;19.83;;;4.10;;
5245;SDS011;54412;51.206;6.888;2023-11-19T12:29:48;23.77;;;4.30;;
5245;SDS011;54412;51.206;6.888;2023-11-19T12:32:15;23.73;;;5.00;;
5245;SDS011;54412;51.206;6.888;2023-11-19T12:34:41;21.33;;;4.50;;
5245;SDS011;54412;51.206;6.888;2023-11-19T12:37:07;34.43;;;5.73;;
5245;SDS011;54412;51.206;6.888;2023-11-19T12:39:35;18.93;;;4.33;;
5245;SDS011;54412;51.206;6.888;2023-11-19T12:42:00;23.30;;;4.70;;
5245;SDS011;54412;51.206;6.888;2023-11-19T12:44:26;13.33;;;3.37;;
5245;SDS011;54412;51.206;6.888;2023-11-19T12:46:59;21.83;;;4.10;;
5245;SDS011;54412;51.206;6.888;2023-11-19T12:49:26;16.87;;;5.13;;
5245;SDS011;54412;51.206;6.888;2023-11-19T12:51:52;17.17;;;3.50;;
5245;SDS011;54412;51.206;6.888;2023-11-19T12:54:17;21.43;;;4.93;;
5245;SDS011;54412;51.206;6.888;2023-11-19T12:56:53;14.23;;;3.53;;
5245;SDS011;54412;51.206;6.888;2023-11-19T12:59:19;14.67;;;3.93;;
5245;SDS011;54412;51.206;6.888;2023-11-19T13:02:02;13.80;;;3.17;;
5245;SDS011;54412;51.206;6.888;2023-11-19T13:04:30;15.57;;;3.70;;
5245;SDS011;54412;51.206;6.888;2023-11-19T13:06:59;15.97;;;4.37;;
5245;SDS011;54412;51.206;6.888;2023-11-19T13:09:28;26.40;;;4.27;;
5245;SDS011;54412;51.206;6.888;2023-11-19T13:11:55;18.33;;;4.70;;
5245;SDS011;54412;51.206;6.888;2023-11-19T13:14:21;21.40;;;4.73;;
5245;SDS011;54412;51.206;6.888;2023-11-19T13:16:48;13.90;;;3.90;;
5245;SDS011;54412;51.206;6.888;2023-11-19T13:19:14;25.83;;;4.90;;
5245;SDS011;54412;51.206;6.888;2023-11-19T13:21:44;28.73;;;4.67;;
5245;SDS011;54412;51.206;6.888;2023-11-19T13:24:13;26.43;;;3.80;;
5245;SDS011;54412;51.206;6.888;2023-11-19T13:26:39;16.43;;;4.27;;
5245;SDS011;54412;51.206;6.888;2023-11-19T13:29:05;23.30;;;3.73;;
5245;SDS011;54412;51.206;6.888;2023-11-19T13:31:31;14.67;;;3.00;;
5245;SDS011;54412;51.206;6.888;2023-11-19T13:33:56;20.00;;;3.80;;
5245;SDS011;54412;51.206;6.888;2023-11-19T13:36:23;19.40;;;3.93;;
5245;SDS011;54412;51.206;6.888;2023-11-19T13:38:50;13.80;;;3.97;;
5245;SDS011;54412;51.206;6.888;2023-11-19T13:41:16;22.00;;;4.17;;
5245;SDS011;54412;51.206;6.888;2023-11-19T13:43:42;15.83;;;3.40;;
5245;SDS011;54412;51.206;6.888;2023-11-19T13:46:08;14.87;;;3.87;;
5245;SDS011;54412;51.206;6.888;2023-11-19T13:48:36;20.50;;;3.93;;
5245;SDS011;54412;51.206;6.888;2023-11-19T13:51:02;17.67;;;4.33;;
5245;SDS011;54412;51.206;6.888;2023-11-19T13:53:28;25.17;;;4.87;;
5245;SDS011;54412;51.206;6.888;2023-11-19T13:55:53;18.27;;;4.93;;
5245;SDS011;54412;51.206;6.888;2023-11-19T13:58:19;16.70;;;4.00;;
5245;SDS011;54412;51.206;6.888;2023-11-19T14:00:45;21.87;;;6.60;;
5245;SDS011;54412;51.206;6.888;2023-11-19T14:03:10;17.97;;;3.90;;
5245;SDS011;54412;51.206;6.888;2023-11-19T14:05:36;19.33;;;3.97;;
5245;SDS011;54412;51.206;6.888;2023-11-19T14:08:03;21.30;;;4.03;;
5245;SDS011;54412;51.206;6.888;2023-11-19T14:10:36;22.63;;;4.77;;
5245;SDS011;54412;51.206;6.888;2023-11-19T14:13:04;17.60;;;4.27;;
5245;SDS011;54412;51.206;6.888;2023-11-19T14:15:30;28.90;;;4.20;;
5245;SDS011;54412;51.206;6.888;2023-11-19T14:17:56;19.37;;;4.33;;
5245;SDS011;54412;51.206;6.888;2023-11-19T14:20:21;16.40;;;3.77;;
5245;SDS011;54412;51.206;6.888;2023-11-19T14:22:47;18.53;;;5.40;;
5245;SDS011;54412;51.206;6.888;2023-11-19T14:25:15;15.93;;;4.30;;
5245;SDS011;54412;51.206;6.888;2023-11-19T14:27:42;18.57;;;4.57;;
5245;SDS011;54412;51.206;6.888;2023-11-19T14:30:09;24.07;;;5.37;;
5245;SDS011;54412;51.206;6.888;2023-11-19T14:32:38;17.17;;;4.73;;
5245;SDS011;54412;51.206;6.888;2023-11-19T14:35:10;18.63;;;4.90;;
5245;SDS011;54412;51.206;6.888;2023-11-19T14:37:36;34.60;;;5.53;;
5245;SDS011;54412;51.206;6.888;2023-11-19T14:40:02;22.07;;;5.03;;
5245;SDS011;54412;51.206;6.888;2023-11-19T14:42:30;26.50;;;7.30;;
5245;SDS011;54412;51.206;6.888;2023-11-19T14:44:56;18.87;;;4.20;;
5245;SDS011;54412;51.206;6.888;2023-11-19T14:47:22;26.17;;;4.87;;
5245;SDS011;54412;51.206;6.888;2023-11-19T14:49:48;17.47;;;3.70;;
5245;SDS011;54412;51.206;6.888;2023-11-19T14:52:14;17.60;;;4.00;;
5245;SDS011;54412;51.206;6.888;2023-11-19T14:54:40;24.50;;;4.67;;
5245;SDS011;54412;51.206;6.888;2023-11-19T14:57:06;17.00;;;3.80;;
5245;SDS011;54412;51.206;6.888;2023-11-19T14:59:35;26.17;;;5.07;;
5245;SDS011;54412;51.206;6.888;2023-11-19T15:02:02;34.30;;;4.87;;
5245;SDS011;54412;51.206;6.888;2023-11-19T15:04:29;21.43;;;4.30;;
5245;SDS011;54412;51.206;6.888;2023-11-19T15:06:58;28.30;;;5.00;;
5245;SDS011;54412;51.206;6.888;2023-11-19T15:09:25;18.37;;;4.53;;
5245;SDS011;54412;51.206;6.888;2023-11-19T15:11:54;17.67;;;4.63;;
5245;SDS011;54412;51.206;6.888;2023-11-19T15:14:20;12.33;;;3.57;;
5245;SDS011;54412;51.206;6.888;2023-11-19T15:16:46;27.53;;;5.13;;
5245;SDS011;54412;51.206;6.888;2023-11-19T15:19:15;19.40;;;3.57;;